createdAt,value
2017-11-28T00:00:34.253Z,1002.89
2017-11-28T00:02:29.696Z,1002.87
2017-11-28T00:03:29.626Z,1002.87
2017-11-28T00:05:28.075Z,1002.85
2017-11-28T00:06:27.600Z,1002.87
2017-11-28T00:08:26.009Z,1002.80
2017-11-28T00:09:25.495Z,1002.80
2017-11-28T00:11:21.448Z,1002.82
2017-11-28T00:12:21.926Z,1002.79
2017-11-28T00:14:20.378Z,1002.78
2017-11-28T00:15:19.347Z,1002.78
2017-11-28T00:17:17.312Z,1002.77
2017-11-28T00:18:17.279Z,1002.76
2017-11-28T00:20:13.266Z,1002.76
2017-11-28T00:21:13.206Z,1002.79
2017-11-28T00:23:11.169Z,1002.81
2017-11-28T00:24:11.129Z,1002.81
2017-11-28T00:26:09.039Z,1002.73
2017-11-28T00:27:09.038Z,1002.75
2017-11-28T00:29:04.957Z,1002.72
2017-11-28T00:30:04.962Z,1002.73
2017-11-28T00:32:00.972Z,1002.75
2017-11-28T00:33:00.906Z,1002.79
2017-11-28T00:34:56.832Z,1002.77
2017-11-28T00:35:56.854Z,1002.71
2017-11-28T00:37:55.307Z,1002.70
2017-11-28T00:38:54.774Z,1002.70
2017-11-28T00:40:52.731Z,1002.68
2017-11-28T00:41:52.698Z,1002.75
2017-11-28T00:43:50.748Z,1002.70
2017-11-28T00:44:51.680Z,1002.68
2017-11-28T00:46:46.703Z,1002.68
2017-11-28T00:47:47.210Z,1002.63
2017-11-28T00:49:44.560Z,1002.60
2017-11-28T00:50:42.654Z,1002.59
2017-11-28T00:52:38.626Z,1002.54
2017-11-28T00:53:39.121Z,1002.57
2017-11-28T00:55:36.514Z,1002.58
2017-11-28T00:56:37.020Z,1002.54
2017-11-28T00:58:34.432Z,1002.50
2017-11-28T00:59:34.405Z,1002.47
2017-11-28T01:01:33.864Z,1002.51
2017-11-28T01:02:32.887Z,1002.49
2017-11-28T01:04:30.414Z,1002.50
2017-11-28T01:05:31.305Z,1002.50
2017-11-28T01:07:28.420Z,1002.47
2017-11-28T01:08:28.414Z,1002.45
2017-11-28T01:10:24.391Z,1002.41
2017-11-28T01:11:24.864Z,1002.41
2017-11-28T01:13:20.790Z,1002.45
2017-11-28T01:14:20.263Z,1002.37
2017-11-28T01:16:18.737Z,1002.39
2017-11-28T01:17:18.192Z,1002.42
2017-11-28T01:19:16.123Z,1002.44
2017-11-28T01:20:16.196Z,1002.39
2017-11-28T01:22:12.577Z,1002.38
2017-11-28T01:23:12.060Z,1002.35
2017-11-28T01:25:10.012Z,1002.35
2017-11-28T01:26:09.981Z,1002.28
2017-11-28T01:28:07.973Z,1002.30
2017-11-28T01:29:08.928Z,1002.28
2017-11-28T01:31:03.903Z,1002.29
2017-11-28T01:32:03.846Z,1002.31
2017-11-28T01:33:59.818Z,1002.31
2017-11-28T01:35:00.310Z,1002.29
2017-11-28T01:36:57.772Z,1002.31
2017-11-28T01:37:57.735Z,1002.29
2017-11-28T01:39:56.215Z,1002.29
2017-11-28T01:40:55.661Z,1002.27
2017-11-28T01:42:54.635Z,1002.30
2017-11-28T01:43:53.561Z,1002.24
2017-11-28T01:45:51.514Z,1002.26
2017-11-28T01:46:51.483Z,1002.24
2017-11-28T01:48:48.932Z,1002.22
2017-11-28T01:49:47.431Z,1002.23
2017-11-28T01:51:46.368Z,1002.20
2017-11-28T01:52:45.356Z,1002.17
2017-11-28T01:54:41.802Z,1002.16
2017-11-28T01:55:41.278Z,1002.12
2017-11-28T01:57:40.228Z,1002.08
2017-11-28T01:58:39.395Z,1002.10
2017-11-28T02:00:37.261Z,1002.06
2017-11-28T02:01:35.763Z,1002.05
2017-11-28T02:03:31.246Z,1002.03
2017-11-28T02:04:31.752Z,1001.98
2017-11-28T02:06:29.099Z,1001.95
2017-11-28T02:07:29.115Z,1001.95
2017-11-28T02:09:25.567Z,1001.89
2017-11-28T02:10:25.994Z,1001.91
2017-11-28T02:12:22.995Z,1001.91
2017-11-28T02:13:22.954Z,1001.89
2017-11-28T02:15:19.436Z,1001.92
2017-11-28T02:16:19.406Z,1001.92
2017-11-28T02:18:15.836Z,1001.86
2017-11-28T02:19:14.815Z,1001.84
2017-11-28T02:21:10.736Z,1001.84
2017-11-28T02:22:11.270Z,1001.80
2017-11-28T02:24:06.694Z,1001.76
2017-11-28T02:25:07.204Z,1001.80
2017-11-28T02:27:02.678Z,1001.73
2017-11-28T02:28:02.599Z,1001.71
2017-11-28T02:29:58.554Z,1001.74
2017-11-28T02:30:59.062Z,1001.69
2017-11-28T02:32:56.572Z,1001.63
2017-11-28T02:33:57.507Z,1001.65
2017-11-28T02:35:54.487Z,1001.62
2017-11-28T02:36:54.527Z,1001.61
2017-11-28T02:38:50.448Z,1001.65
2017-11-28T02:39:50.431Z,1001.66
2017-11-28T02:41:48.893Z,1001.62
2017-11-28T02:42:48.516Z,1001.57
2017-11-28T02:44:46.956Z,1001.48
2017-11-28T02:45:46.565Z,1001.46
2017-11-28T02:47:42.475Z,1001.45
2017-11-28T02:48:42.459Z,1001.44
2017-11-28T02:50:38.419Z,1001.35
2017-11-28T02:51:38.423Z,1001.36
2017-11-28T02:53:34.852Z,1001.36
2017-11-28T02:54:34.320Z,1001.34
2017-11-28T02:56:30.294Z,1001.36
2017-11-28T02:57:30.762Z,1001.37
2017-11-28T02:59:27.215Z,1001.39
2017-11-28T03:00:26.183Z,1001.40
2017-11-28T03:02:22.635Z,1001.39
2017-11-28T03:03:22.073Z,1001.39
2017-11-28T03:05:20.029Z,1001.40
2017-11-28T03:06:20.005Z,1001.35
2017-11-28T03:08:17.933Z,1001.36
2017-11-28T03:09:17.949Z,1001.34
2017-11-28T03:11:15.874Z,1001.40
2017-11-28T03:12:15.874Z,1001.39
2017-11-28T03:14:13.839Z,1001.39
2017-11-28T03:15:14.302Z,1001.36
2017-11-28T03:17:11.716Z,1001.38
2017-11-28T03:18:11.708Z,1001.40
2017-11-28T03:20:09.642Z,1001.34
2017-11-28T03:21:09.619Z,1001.34
2017-11-28T03:23:08.596Z,1001.34
2017-11-28T03:24:07.661Z,1001.37
2017-11-28T03:26:04.531Z,1001.33
2017-11-28T03:27:04.100Z,1001.35
2017-11-28T03:28:59.520Z,1001.39
2017-11-28T03:29:59.527Z,1001.43
2017-11-28T03:31:56.973Z,1001.42
2017-11-28T03:32:55.997Z,1001.44
2017-11-28T03:34:51.403Z,1001.40
2017-11-28T03:35:51.385Z,1001.39
2017-11-28T03:37:49.406Z,1001.37
2017-11-28T03:38:49.400Z,1001.37
2017-11-28T03:40:47.349Z,1001.37
2017-11-28T03:41:47.320Z,1001.42
2017-11-28T03:43:43.801Z,1001.34
2017-11-28T03:44:43.285Z,1001.30
2017-11-28T03:46:39.246Z,1001.27
2017-11-28T03:47:39.733Z,1001.27
2017-11-28T03:49:36.182Z,1001.21
2017-11-28T03:50:35.167Z,1001.21
2017-11-28T03:52:31.643Z,1001.15
2017-11-28T03:53:31.613Z,1001.14
2017-11-28T03:55:28.024Z,1001.15
2017-11-28T03:56:27.514Z,1001.14
2017-11-28T03:58:25.935Z,1001.16
2017-11-28T03:59:24.917Z,1001.17
2017-11-28T04:01:23.864Z,1001.18
2017-11-28T04:02:22.945Z,1001.22
2017-11-28T04:04:21.898Z,1001.12
2017-11-28T04:05:20.904Z,1001.19
2017-11-28T04:07:16.868Z,1001.22
2017-11-28T04:08:16.821Z,1001.25
2017-11-28T04:10:14.822Z,1001.26
2017-11-28T04:11:14.767Z,1001.25
2017-11-28T04:13:13.212Z,1001.19
2017-11-28T04:14:12.712Z,1001.23
2017-11-28T04:16:10.153Z,1001.27
2017-11-28T04:17:08.687Z,1001.26
2017-11-28T04:19:06.735Z,1001.23
2017-11-28T04:20:06.728Z,1001.27
2017-11-28T04:22:03.670Z,1001.27
2017-11-28T04:23:02.649Z,1001.31
2017-11-28T04:24:59.116Z,1001.29
2017-11-28T04:25:58.569Z,1001.25
2017-11-28T04:27:55.531Z,1001.22
2017-11-28T04:28:54.538Z,1001.22
2017-11-28T04:30:50.526Z,1001.21
2017-11-28T04:31:50.512Z,1001.19
2017-11-28T04:33:46.434Z,1001.21
2017-11-28T04:34:46.429Z,1001.19
2017-11-28T04:36:42.383Z,1001.19
2017-11-28T04:37:42.375Z,1001.17
2017-11-28T04:39:38.303Z,1001.21
2017-11-28T04:40:38.797Z,1001.21
2017-11-28T04:42:35.256Z,1001.27
2017-11-28T04:43:34.747Z,1001.27
2017-11-28T04:45:32.173Z,1001.30
2017-11-28T04:46:32.643Z,1001.30
2017-11-28T04:48:28.082Z,1001.29
2017-11-28T04:49:28.068Z,1001.23
2017-11-28T04:51:26.024Z,1001.23
2017-11-28T04:52:26.513Z,1001.20
2017-11-28T04:54:21.935Z,1001.19
2017-11-28T04:55:22.457Z,1001.25
2017-11-28T04:57:18.414Z,1001.25
2017-11-28T04:58:18.398Z,1001.26
2017-11-28T05:00:13.830Z,1001.23
2017-11-28T05:01:15.338Z,1001.23
2017-11-28T05:03:10.283Z,1001.20
2017-11-28T05:04:09.737Z,1001.21
2017-11-28T05:06:07.764Z,1001.26
2017-11-28T05:07:07.758Z,1001.25
2017-11-28T05:09:03.699Z,1001.27
2017-11-28T05:10:03.726Z,1001.27
2017-11-28T05:12:01.757Z,1001.32
2017-11-28T05:13:02.654Z,1001.32
2017-11-28T05:14:57.661Z,1001.32
2017-11-28T05:15:57.671Z,1001.33
2017-11-28T05:17:53.633Z,1001.37
2017-11-28T05:18:53.593Z,1001.38
2017-11-28T05:20:49.557Z,1001.39
2017-11-28T05:21:50.040Z,1001.41
2017-11-28T05:23:46.000Z,1001.32
2017-11-28T05:24:45.471Z,1001.34
2017-11-28T05:26:41.421Z,1001.32
2017-11-28T05:27:41.418Z,1001.28
2017-11-28T05:29:38.380Z,1001.27
2017-11-28T05:30:37.369Z,1001.28
2017-11-28T05:32:35.383Z,1001.28
2017-11-28T05:33:35.348Z,1001.30
2017-11-28T05:35:33.287Z,1001.31
2017-11-28T05:36:33.282Z,1001.31
2017-11-28T05:38:29.253Z,1001.35
2017-11-28T05:39:29.213Z,1001.35
2017-11-28T05:41:25.735Z,1001.38
2017-11-28T05:42:25.165Z,1001.36
2017-11-28T05:44:21.066Z,1001.39
2017-11-28T05:45:21.603Z,1001.40
2017-11-28T05:47:18.998Z,1001.45
2017-11-28T05:48:18.990Z,1001.48
2017-11-28T05:50:17.945Z,1001.53
2017-11-28T05:51:17.027Z,1001.53
2017-11-28T05:53:13.013Z,1001.52
2017-11-28T05:54:13.487Z,1001.54
2017-11-28T05:56:08.913Z,1001.51
2017-11-28T05:57:09.478Z,1001.52
2017-11-28T05:59:04.814Z,1001.54
2017-11-28T06:00:04.813Z,1001.55
2017-11-28T06:02:02.255Z,1001.58
2017-11-28T06:03:01.250Z,1001.56
2017-11-28T06:04:57.714Z,1001.57
2017-11-28T06:05:56.692Z,1001.56
2017-11-28T06:07:52.639Z,1001.55
2017-11-28T06:08:52.610Z,1001.56
2017-11-28T06:10:51.102Z,1001.54
2017-11-28T06:11:50.669Z,1001.54
2017-11-28T06:13:58.360Z,1001.58
2017-11-28T06:14:54.969Z,1001.62
2017-11-28T06:16:44.968Z,1001.65
2017-11-28T06:17:44.953Z,1001.62
2017-11-28T06:19:41.939Z,1001.65
2017-11-28T06:20:40.369Z,1001.68
2017-11-28T06:22:33.791Z,1001.71
2017-11-28T06:23:33.779Z,1001.74
2017-11-28T06:25:30.208Z,1001.72
2017-11-28T06:26:29.721Z,1001.74
2017-11-28T06:28:25.661Z,1001.73
2017-11-28T06:29:25.648Z,1001.73
2017-11-28T06:31:22.089Z,1001.73
2017-11-28T06:32:21.569Z,1001.73
2017-11-28T06:34:17.530Z,1001.71
2017-11-28T06:35:18.012Z,1001.67
2017-11-28T06:37:14.472Z,1001.70
2017-11-28T06:38:14.003Z,1001.72
2017-11-28T06:40:09.364Z,1001.76
2017-11-28T06:41:09.375Z,1001.74
2017-11-28T06:43:05.958Z,1001.80
2017-11-28T06:44:05.268Z,1001.82
2017-11-28T06:46:01.181Z,1001.87
2017-11-28T06:47:01.719Z,1001.84
2017-11-28T06:48:57.115Z,1001.85
2017-11-28T06:49:57.108Z,1001.89
2017-11-28T06:51:55.074Z,1001.88
2017-11-28T06:52:55.578Z,1001.91
2017-11-28T06:54:53.067Z,1001.93
2017-11-28T06:55:53.509Z,1001.95
2017-11-28T06:57:50.950Z,1001.91
2017-11-28T06:58:50.936Z,1001.94
2017-11-28T07:00:47.389Z,1001.94
2017-11-28T07:01:46.867Z,1001.95
2017-11-28T07:03:42.846Z,1001.96
2017-11-28T07:04:42.812Z,1001.98
2017-11-28T07:06:39.288Z,1002.04
2017-11-28T07:07:38.773Z,1002.04
2017-11-28T07:09:35.237Z,1002.12
2017-11-28T07:10:34.695Z,1002.14
2017-11-28T07:12:30.652Z,1002.17
2017-11-28T07:13:30.594Z,1002.20
2017-11-28T07:15:28.065Z,1002.23
2017-11-28T07:16:28.055Z,1002.27
2017-11-28T07:18:22.992Z,1002.28
2017-11-28T07:19:22.474Z,1002.28
2017-11-28T07:21:18.468Z,1002.30
2017-11-28T07:22:18.420Z,1002.26
2017-11-28T07:24:14.373Z,1002.21
2017-11-28T07:25:14.342Z,1002.22
2017-11-28T07:27:10.336Z,1002.19
2017-11-28T07:28:11.786Z,1002.20
2017-11-28T07:30:06.237Z,1002.22
2017-11-28T07:31:06.226Z,1002.19
2017-11-28T07:33:02.186Z,1002.18
2017-11-28T07:34:02.141Z,1002.18
2017-11-28T07:36:00.162Z,1002.21
2017-11-28T07:37:00.154Z,1002.22
2017-11-28T07:38:56.104Z,1002.25
2017-11-28T07:39:56.102Z,1002.24
2017-11-28T07:41:51.090Z,1002.30
2017-11-28T07:42:51.047Z,1002.27
2017-11-28T07:44:46.996Z,1002.28
2017-11-28T07:45:46.454Z,1002.30
2017-11-28T07:47:42.400Z,1002.29
2017-11-28T07:48:42.403Z,1002.31
2017-11-28T07:50:35.847Z,1002.36
2017-11-28T07:51:35.825Z,1002.34
2017-11-28T07:53:30.249Z,1002.31
2017-11-28T07:54:30.791Z,1002.31
2017-11-28T07:56:26.217Z,1002.30
2017-11-28T07:57:26.198Z,1002.32
2017-11-28T07:59:19.623Z,1002.31
2017-11-28T08:00:20.150Z,1002.33
2017-11-28T08:02:15.582Z,1002.27
2017-11-28T08:03:15.559Z,1002.30
2017-11-28T08:05:09.977Z,1002.33
2017-11-28T08:06:09.944Z,1002.34
2017-11-28T08:08:05.924Z,1002.36
2017-11-28T08:09:05.878Z,1002.33
2017-11-28T08:11:01.855Z,1002.35
2017-11-28T08:12:01.836Z,1002.34
2017-11-28T08:13:58.264Z,1002.37
2017-11-28T08:14:58.277Z,1002.37
2017-11-28T08:16:53.692Z,1002.41
2017-11-28T08:17:54.186Z,1002.39
2017-11-28T08:19:49.624Z,1002.38
2017-11-28T08:20:49.597Z,1002.39
2017-11-28T08:22:45.494Z,1002.37
2017-11-28T08:23:45.484Z,1002.38
2017-11-28T08:25:41.929Z,1002.38
2017-11-28T08:26:41.408Z,1002.36
2017-11-28T08:28:37.350Z,1002.31
2017-11-28T08:29:37.359Z,1002.31
2017-11-28T08:31:33.308Z,1002.34
2017-11-28T08:32:33.288Z,1002.35
2017-11-28T08:34:29.215Z,1002.41
2017-11-28T08:35:29.203Z,1002.36
2017-11-28T08:37:25.172Z,1002.35
2017-11-28T08:38:25.126Z,1002.40
2017-11-28T08:40:21.089Z,1002.46
2017-11-28T08:41:22.569Z,1002.40
2017-11-28T08:43:17.008Z,1002.44
2017-11-28T08:44:16.985Z,1002.45
2017-11-28T08:46:13.423Z,1002.42
2017-11-28T08:47:13.435Z,1002.36
2017-11-28T08:49:11.349Z,1002.39
2017-11-28T08:50:10.837Z,1002.37
2017-11-28T08:52:06.804Z,1002.31
2017-11-28T08:53:07.795Z,1002.33
2017-11-28T08:55:02.267Z,1002.32
2017-11-28T08:56:01.264Z,1002.34
2017-11-28T08:57:57.220Z,1002.33
2017-11-28T08:58:57.189Z,1002.38
2017-11-28T09:00:53.177Z,1002.39
2017-11-28T09:01:53.098Z,1002.41
2017-11-28T09:03:47.577Z,1002.45
2017-11-28T09:04:48.056Z,1002.43
2017-11-28T09:06:43.987Z,1002.40
2017-11-28T09:07:43.479Z,1002.42
2017-11-28T09:09:39.420Z,1002.46
2017-11-28T09:10:39.926Z,1002.48
2017-11-28T09:12:34.856Z,1002.48
2017-11-28T09:13:33.794Z,1002.55
2017-11-28T09:15:30.007Z,1002.52
2017-11-28T09:16:29.740Z,1002.53
2017-11-28T09:18:26.176Z,1002.51
2017-11-28T09:19:25.654Z,1002.53
2017-11-28T09:21:20.633Z,1002.55
2017-11-28T09:22:20.093Z,1002.49
2017-11-28T09:24:16.027Z,1002.49
2017-11-28T09:25:16.027Z,1002.53
2017-11-28T09:27:11.985Z,1002.57
2017-11-28T09:28:11.946Z,1002.55
2017-11-28T09:30:09.416Z,1002.58
2017-11-28T09:31:08.417Z,1002.58
2017-11-28T09:33:03.798Z,1002.54
2017-11-28T09:34:03.799Z,1002.52
2017-11-28T09:35:59.246Z,1002.54
2017-11-28T09:36:58.217Z,1002.50
2017-11-28T09:38:54.190Z,1002.55
2017-11-28T09:39:54.156Z,1002.53
2017-11-28T09:41:49.097Z,1002.50
2017-11-28T09:42:48.595Z,1002.55
2017-11-28T09:44:45.042Z,1002.60
2017-11-28T09:45:44.519Z,1002.55
2017-11-28T09:47:39.473Z,1002.55
2017-11-28T09:48:38.955Z,1002.58
2017-11-28T09:50:35.409Z,1002.58
2017-11-28T09:51:35.838Z,1002.58
2017-11-28T09:53:30.973Z,1002.56
2017-11-28T09:54:31.850Z,1002.57
2017-11-28T09:56:26.904Z,1002.55
2017-11-28T09:57:26.888Z,1002.54
2017-11-28T09:59:23.829Z,1002.59
2017-11-28T10:00:22.810Z,1002.58
2017-11-28T10:02:18.736Z,1002.57
2017-11-28T10:03:19.265Z,1002.58
2017-11-28T10:05:14.185Z,1002.55
2017-11-28T10:06:13.168Z,1002.51
2017-11-28T10:08:09.123Z,1002.49
2017-11-28T10:09:09.112Z,1002.46
2017-11-28T10:11:07.059Z,1002.39
2017-11-28T10:12:05.051Z,1002.40
2017-11-28T10:13:59.991Z,1002.46
2017-11-28T10:14:58.983Z,1002.40
2017-11-28T10:16:54.408Z,1002.40
2017-11-28T10:17:54.391Z,1002.42
2017-11-28T10:19:50.843Z,1002.43
2017-11-28T10:20:50.353Z,1002.42
2017-11-28T10:22:46.236Z,1002.42
2017-11-28T10:23:46.239Z,1002.42
2017-11-28T10:25:43.694Z,1002.44
2017-11-28T10:26:42.183Z,1002.39
2017-11-28T10:28:36.617Z,1002.39
2017-11-28T10:29:35.619Z,1002.43
2017-11-28T10:31:32.069Z,1002.38
2017-11-28T10:32:31.572Z,1002.43
2017-11-28T10:34:28.500Z,1002.39
2017-11-28T10:35:27.490Z,1002.37
2017-11-28T10:37:24.424Z,1002.26
2017-11-28T10:38:23.396Z,1002.31
2017-11-28T10:40:19.370Z,1002.29
2017-11-28T10:41:19.348Z,1002.31
2017-11-28T10:43:15.312Z,1002.33
2017-11-28T10:44:15.258Z,1002.33
2017-11-28T10:46:09.712Z,1002.34
2017-11-28T10:47:09.675Z,1002.35
2017-11-28T10:49:06.625Z,1002.31
2017-11-28T10:50:06.132Z,1002.30
2017-11-28T10:52:01.578Z,1002.29
2017-11-28T10:53:01.554Z,1002.25
2017-11-28T10:54:59.006Z,1002.24
2017-11-28T10:55:57.523Z,1002.21
2017-11-28T10:57:53.956Z,1002.20
2017-11-28T10:58:52.460Z,1002.19
2017-11-28T11:00:48.424Z,1002.17
2017-11-28T11:01:47.878Z,1002.16
2017-11-28T11:03:42.338Z,1002.14
2017-11-28T11:04:42.335Z,1002.19
2017-11-28T11:06:36.295Z,1002.18
2017-11-28T11:07:35.795Z,1002.20
2017-11-28T11:09:31.741Z,1002.24
2017-11-28T11:10:31.737Z,1002.27
2017-11-28T11:12:27.629Z,1002.20
2017-11-28T11:13:27.646Z,1002.23
2017-11-28T11:15:22.591Z,1002.21
2017-11-28T11:16:22.072Z,1002.21
2017-11-28T11:18:19.013Z,1002.20
2017-11-28T11:19:17.994Z,1002.15
2017-11-28T11:21:13.953Z,1002.15
2017-11-28T11:22:13.922Z,1002.12
2017-11-28T11:24:08.362Z,1002.13
2017-11-28T11:25:08.368Z,1002.12
2017-11-28T11:27:05.824Z,1002.11
2017-11-28T11:28:04.818Z,1002.09
2017-11-28T11:30:00.261Z,1002.08
2017-11-28T11:31:00.239Z,1002.09
2017-11-28T11:32:58.685Z,1002.04
2017-11-28T11:33:56.124Z,1002.05
2017-11-28T11:35:53.084Z,1002.05
2017-11-28T11:36:52.089Z,1002.00
2017-11-28T11:38:48.017Z,1002.01
2017-11-28T11:39:48.004Z,1001.99
2017-11-28T11:41:43.964Z,1001.94
2017-11-28T11:42:43.951Z,1001.94
2017-11-28T11:44:40.396Z,1001.94
2017-11-28T11:45:39.880Z,1001.94
2017-11-28T11:47:36.845Z,1001.93
2017-11-28T11:48:35.846Z,1001.91
2017-11-28T11:50:31.803Z,1001.90
2017-11-28T11:51:31.744Z,1001.89
2017-11-28T11:53:28.716Z,1001.87
2017-11-28T11:54:27.704Z,1001.91
2017-11-28T11:56:24.161Z,1001.91
2017-11-28T11:57:23.640Z,1001.89
2017-11-28T11:59:20.107Z,1001.78
2017-11-28T12:00:19.575Z,1001.84
2017-11-28T12:02:16.049Z,1001.79
2017-11-28T12:03:15.500Z,1001.80
2017-11-28T12:05:11.435Z,1001.77
2017-11-28T12:06:11.435Z,1001.76
2017-11-28T12:08:07.359Z,1001.78
2017-11-28T12:09:07.355Z,1001.78
2017-11-28T12:11:03.319Z,1001.77
2017-11-28T12:12:03.814Z,1001.78
2017-11-28T12:13:59.239Z,1001.75
2017-11-28T12:14:59.238Z,1001.78
2017-11-28T12:16:55.215Z,1001.75
2017-11-28T12:17:55.205Z,1001.76
2017-11-28T12:19:51.626Z,1001.72
2017-11-28T12:20:51.124Z,1001.76
2017-11-28T12:22:47.073Z,1001.72
2017-11-28T12:23:47.027Z,1001.68
2017-11-28T12:25:42.972Z,1001.62
2017-11-28T12:26:42.984Z,1001.72
2017-11-28T12:28:38.930Z,1001.66
2017-11-28T12:29:38.918Z,1001.67
2017-11-28T12:31:35.377Z,1001.62
2017-11-28T12:32:34.856Z,1001.65
2017-11-28T12:34:34.812Z,1001.55
2017-11-28T12:35:32.833Z,1001.58
2017-11-28T12:37:29.780Z,1001.52
2017-11-28T12:38:28.768Z,1001.58
2017-11-28T12:40:24.746Z,1001.58
2017-11-28T12:41:25.224Z,1001.50
2017-11-28T12:43:19.674Z,1001.50
2017-11-28T12:44:19.163Z,1001.47
2017-11-28T12:46:15.105Z,1001.49
2017-11-28T12:47:15.100Z,1001.45
2017-11-28T12:50:11.048Z,1001.46
2017-11-28T12:52:07.991Z,1001.46
2017-11-28T12:53:07.003Z,1001.53
2017-11-28T12:55:00.418Z,1001.45
2017-11-28T12:56:00.453Z,1001.40
2017-11-28T12:57:54.906Z,1001.43
2017-11-28T12:58:56.803Z,1001.44
2017-11-28T13:00:50.879Z,1001.39
2017-11-28T13:01:50.835Z,1001.40
2017-11-28T13:03:48.335Z,1001.40
2017-11-28T13:04:46.785Z,1001.40
2017-11-28T13:06:43.738Z,1001.36
2017-11-28T13:07:42.713Z,1001.36
2017-11-28T13:09:39.168Z,1001.34
2017-11-28T13:10:40.098Z,1001.32
2017-11-28T13:12:35.131Z,1001.34
2017-11-28T13:13:35.132Z,1001.31
2017-11-28T13:15:29.041Z,1001.27
2017-11-28T13:16:29.005Z,1001.26
2017-11-28T13:18:22.457Z,1001.28
2017-11-28T13:19:22.425Z,1001.29
2017-11-28T13:21:17.383Z,1001.25
2017-11-28T13:22:17.397Z,1001.22
2017-11-28T13:24:12.840Z,1001.24
2017-11-28T13:25:11.839Z,1001.22
2017-11-28T13:27:07.250Z,1001.23
2017-11-28T13:28:07.760Z,1001.24
2017-11-28T13:30:03.190Z,1001.20
2017-11-28T13:31:03.177Z,1001.19
2017-11-28T13:33:01.647Z,1001.22
2017-11-28T13:34:01.219Z,1001.21
2017-11-28T13:35:57.162Z,1001.27
2017-11-28T13:36:57.125Z,1001.24
2017-11-28T13:38:50.609Z,1001.20
2017-11-28T13:39:50.573Z,1001.20
2017-11-28T13:41:46.554Z,1001.16
2017-11-28T13:42:46.506Z,1001.18
2017-11-28T13:44:42.473Z,1001.19
2017-11-28T13:45:42.453Z,1001.14
2017-11-28T13:47:44.916Z,1001.19
2017-11-28T13:48:47.486Z,1001.19
2017-11-28T13:50:39.453Z,1001.25
2017-11-28T13:51:39.439Z,1001.16
2017-11-28T13:53:35.909Z,1001.21
2017-11-28T13:54:35.394Z,1001.21
2017-11-28T13:56:31.841Z,1001.29
2017-11-28T13:57:31.331Z,1001.26
2017-11-28T13:59:27.293Z,1001.26
2017-11-28T14:00:27.281Z,1001.19
2017-11-28T14:02:24.230Z,1001.18
2017-11-28T14:03:23.242Z,1001.16
2017-11-28T14:05:19.179Z,1001.22
2017-11-28T14:06:19.664Z,1001.19
2017-11-28T14:08:15.108Z,1001.19
2017-11-28T14:09:15.094Z,1001.17
2017-11-28T14:11:11.082Z,1001.19
2017-11-28T14:12:11.049Z,1001.14
2017-11-28T14:14:07.020Z,1001.14
2017-11-28T14:15:07.039Z,1001.16
2017-11-28T14:17:07.529Z,1001.16
2017-11-28T14:19:59.977Z,1001.15
2017-11-28T14:21:00.494Z,1001.18
2017-11-28T14:22:56.418Z,1001.14
2017-11-28T14:23:55.893Z,1001.15
2017-11-28T14:25:50.376Z,1001.12
2017-11-28T14:26:51.356Z,1001.14
2017-11-28T14:28:43.835Z,1001.15
2017-11-28T14:29:43.806Z,1001.15
2017-11-28T14:31:40.747Z,1001.11
2017-11-28T14:32:40.256Z,1001.08
2017-11-28T14:34:37.610Z,1001.10
2017-11-28T14:35:35.681Z,1001.09
2017-11-28T14:37:31.621Z,1001.11
2017-11-28T14:38:32.182Z,1001.08
2017-11-28T14:40:27.549Z,1001.09
2017-11-28T14:41:25.034Z,1001.07
2017-11-28T14:43:21.999Z,1001.10
2017-11-28T14:44:20.995Z,1001.12
2017-11-28T14:46:15.476Z,1001.07
2017-11-28T14:47:15.425Z,1001.08
2017-11-28T14:49:11.376Z,1001.09
2017-11-28T14:50:11.366Z,1001.13
2017-11-28T14:52:07.331Z,1001.09
2017-11-28T14:53:05.836Z,1001.11
2017-11-28T14:55:01.291Z,1001.14
2017-11-28T14:56:00.275Z,1001.14
2017-11-28T14:57:56.731Z,1001.12
2017-11-28T14:58:56.197Z,1001.10
2017-11-28T15:00:52.638Z,1001.06
2017-11-28T15:01:52.187Z,1001.08
2017-11-28T15:03:46.137Z,1001.06
2017-11-28T15:04:45.916Z,1001.05
2017-11-28T15:06:42.876Z,1001.03
2017-11-28T15:07:41.964Z,1000.99
2017-11-28T15:09:42.363Z,1001.03
2017-11-28T15:10:39.851Z,1001.02
2017-11-28T15:12:35.799Z,1001.05
2017-11-28T15:13:36.293Z,1001.01
2017-11-28T15:15:31.708Z,1001.00
2017-11-28T15:16:31.669Z,1001.02
2017-11-28T15:18:26.127Z,1001.05
2017-11-28T15:19:26.113Z,1001.03
2017-11-28T15:21:22.056Z,1000.97
2017-11-28T15:22:22.049Z,1001.02
2017-11-28T15:24:16.481Z,1001.01
2017-11-28T15:25:16.492Z,1001.03
2017-11-28T15:27:12.484Z,1001.02
2017-11-28T15:28:12.453Z,1001.00
2017-11-28T15:30:09.330Z,1001.02
2017-11-28T15:31:08.894Z,1001.00
2017-11-28T15:33:04.360Z,1001.03
2017-11-28T15:34:02.847Z,1001.01
2017-11-28T15:35:58.748Z,1001.01
2017-11-28T15:36:58.761Z,1000.99
2017-11-28T15:38:55.205Z,1000.96
2017-11-28T15:39:54.699Z,1000.95
2017-11-28T15:41:50.649Z,1000.90
2017-11-28T15:42:50.622Z,1000.91
2017-11-28T15:44:46.070Z,1000.86
2017-11-28T15:45:45.064Z,1000.80
2017-11-28T15:47:41.559Z,1000.84
2017-11-28T15:48:41.033Z,1000.83
2017-11-28T15:50:35.973Z,1000.82
2017-11-28T15:51:34.970Z,1000.82
2017-11-28T15:53:28.928Z,1000.80
2017-11-28T15:54:29.413Z,1000.76
2017-11-28T15:56:24.853Z,1000.73
2017-11-28T15:57:24.839Z,1000.76
2017-11-28T15:59:20.809Z,1000.74
2017-11-28T16:00:20.774Z,1000.74
2017-11-28T16:02:16.748Z,1000.75
2017-11-28T16:03:16.705Z,1000.77
2017-11-28T16:05:13.636Z,1000.73
2017-11-28T16:06:13.140Z,1000.76
2017-11-28T16:08:07.082Z,1000.75
2017-11-28T16:09:07.079Z,1000.78
2017-11-28T16:11:02.014Z,1000.79
2017-11-28T16:12:02.031Z,1000.76
2017-11-28T16:13:57.976Z,1000.75
2017-11-28T16:14:55.954Z,1000.76
2017-11-28T16:16:54.414Z,1000.79
2017-11-28T16:17:54.010Z,1000.82
2017-11-28T16:19:49.961Z,1000.80
2017-11-28T16:20:49.941Z,1000.78
2017-11-28T16:22:44.412Z,1000.75
2017-11-28T16:23:44.376Z,1000.76
2017-11-28T16:25:38.805Z,1000.77
2017-11-28T16:26:39.312Z,1000.80
2017-11-28T16:28:34.751Z,1000.80
2017-11-28T16:29:34.705Z,1000.80
2017-11-28T16:31:30.682Z,1000.77
2017-11-28T16:32:32.165Z,1000.77
2017-11-28T16:34:27.109Z,1000.72
2017-11-28T16:35:26.567Z,1000.71
2017-11-28T16:37:21.537Z,1000.66
2017-11-28T16:38:21.534Z,1000.72
2017-11-28T16:40:16.991Z,1000.69
2017-11-28T16:41:16.956Z,1000.68
2017-11-28T16:43:12.881Z,1000.65
2017-11-28T16:44:12.880Z,1000.72
2017-11-28T16:46:08.828Z,1000.66
2017-11-28T16:47:08.776Z,1000.70
2017-11-28T16:49:04.728Z,1000.67
2017-11-28T16:50:04.725Z,1000.69
2017-11-28T16:52:01.657Z,1000.70
2017-11-28T16:53:00.641Z,1000.69
2017-11-28T16:54:56.573Z,1000.67
2017-11-28T16:55:57.096Z,1000.66
2017-11-28T16:57:53.029Z,1000.65
2017-11-28T16:58:52.504Z,1000.66
2017-11-28T17:00:48.954Z,1000.67
2017-11-28T17:01:48.961Z,1000.65
2017-11-28T17:03:46.898Z,1000.67
2017-11-28T17:04:44.364Z,1000.65
2017-11-28T17:06:40.310Z,1000.66
2017-11-28T17:07:40.821Z,1000.65
2017-11-28T17:09:36.754Z,1000.70
2017-11-28T17:10:36.777Z,1000.72
2017-11-28T17:12:31.679Z,1000.65
2017-11-28T17:13:30.654Z,1000.65
2017-11-28T17:15:24.119Z,1000.64
2017-11-28T17:16:24.600Z,1000.62
2017-11-28T17:18:20.031Z,1000.63
2017-11-28T17:19:20.001Z,1000.63
2017-11-28T17:21:15.932Z,1000.61
2017-11-28T17:22:15.942Z,1000.63
2017-11-28T17:24:11.937Z,1000.61
2017-11-28T17:25:12.879Z,1000.60
2017-11-28T17:27:09.382Z,1000.61
2017-11-28T17:28:07.865Z,1000.63
2017-11-28T17:30:07.831Z,1000.64
2017-11-28T17:31:02.802Z,1000.57
2017-11-28T17:32:56.731Z,1000.68
2017-11-28T17:33:56.699Z,1000.65
2017-11-28T17:35:52.640Z,1000.65
2017-11-28T17:36:52.617Z,1000.66
2017-11-28T17:38:48.578Z,1000.60
2017-11-28T17:39:49.081Z,1000.64
2017-11-28T17:41:47.000Z,1000.62
2017-11-28T17:42:44.497Z,1000.63
2017-11-28T17:44:37.942Z,1000.61
2017-11-28T17:45:37.928Z,1000.62
2017-11-28T17:47:35.391Z,1000.67